Corbin Foss — WDB5265 — position and weather

sailwx.info

Track history (hours):
 
Tides and Currents Weather Stations Pressure Air Temp Water Temp Dewpoint Dewpoint Depression Visibility Wind Speed Wind Dir Waves Ship Positions

Corbin Foss

Owner: Foss International, Inc, Seattle, WA. More information available from US FCC via Universal Licensing System and Coast Guard Vessel Documentation Center.

Last reported at 2015-Apr-28 07:04 UTC. Time now 2015-Apr-28 18:15 UTC.
Position N 48°45' W 122°30'.

Type: Tow > 200 m length. MMSI: 366902220.

Date/timePositionNaut miles runAvg speedWind from/ knotsBaromVisibWave heightAir tempDewpointWater temp
2015-Apr-28 07:04N 48°45' W 122°30'0 0.0
2015-Apr-28 03:25N 48°45' W 122°30'1 1.3
2015-Apr-28 02:33N 48°44' W 122°31'5 5.0
2015-Apr-28 01:33N 48°39' W 122°34'5 5.4
2015-Apr-28 00:33N 48°40' W 122°42'6 6.3
2015-Apr-27 23:33N 48°45' W 122°48'7 7.2
2015-Apr-27 22:33N 48°49' W 122°57'6 6.1
2015-Apr-27 21:33N 48°53' W 123°05'8 7.5
2015-Apr-27 20:33N 48°57' W 123°14'7 7.1
2015-Apr-27 19:33N 49°02' W 123°22'7 6.7
2015-Apr-27 18:33N 49°09' W 123°23'8 7.6
2015-Apr-27 17:33N 49°16' W 123°20'7 6.9
2015-Apr-27 16:34N 49°19' W 123°11'4 3.8
2015-Apr-27 15:32N 49°18' W 123°05'0 0.2
2015-Apr-27 14:33N 49°18' W 123°05'0 0.0
2015-Apr-27 13:33N 49°18' W 123°05'0 0.0
2015-Apr-27 12:33N 49°18' W 123°05'0 0.0
2015-Apr-27 11:33N 49°18' W 123°05'0 0.0
2015-Apr-27 10:33N 49°18' W 123°05'0 0.0
2015-Apr-27 09:33N 49°18' W 123°05'0 0.0
2015-Apr-27 08:33N 49°18' W 123°05'0 0.0
2015-Apr-27 07:33N 49°18' W 123°05'0 0.0
2015-Apr-27 06:33N 49°18' W 123°05'0 0.0
2015-Apr-27 05:33N 49°18' W 123°05'0 0.0
2015-Apr-27 04:33N 49°18' W 123°05'0 0.0
2015-Apr-27 03:33N 49°18' W 123°05'0 0.0
2015-Apr-27 02:33N 49°18' W 123°05'0 0.0
2015-Apr-27 01:33N 49°18' W 123°05'0 0.0
2015-Apr-27 00:33N 49°18' W 123°05'0 0.0
2015-Apr-26 23:33N 49°18' W 123°05'0 0.0
2015-Apr-26 22:33N 49°18' W 123°05'0 0.0
2015-Apr-26 21:33N 49°18' W 123°05'1 1.4
2015-Apr-26 20:34N 49°18' W 123°07'9 8.8
2015-Apr-26 19:33N 49°14' W 123°19'1010.3
2015-Apr-26 18:34N 49°04' W 123°20'1110.7
2015-Apr-26 17:34N 48°57' W 123°09'1110.9
2015-Apr-26 16:33N 48°50' W 122°56'1110.7
2015-Apr-26 15:33N 48°43' W 122°44'7 7.2
2015-Apr-26 14:33N 48°40' W 122°34'5 1.8
2015-Apr-26 11:32N 48°45' W 122°30'0 0.0
2015-Apr-26 10:17N 48°45' W 122°30'0 0.0
2015-Apr-26 09:20N 48°45' W 122°30'0 0.0
2015-Apr-26 07:29N 48°45' W 122°30'0 0.0
2015-Apr-26 06:11N 48°45' W 122°30'0 0.0
2015-Apr-26 05:32N 48°45' W 122°30'0 0.0
2015-Apr-26 04:29N 48°45' W 122°30'0 0.0
2015-Apr-26 03:17N 48°45' W 122°30'0 0.0
2015-Apr-26 02:32N 48°45' W 122°30'0 0.0
2015-Apr-26 01:26N 48°45' W 122°30'0 0.0
2015-Apr-26 00:32N 48°45' W 122°30'0 0.0
2015-Apr-25 23:32N 48°45' W 122°30'0 0.0
2015-Apr-25 22:29N 48°45' W 122°30'0 0.0
2015-Apr-25 21:26N 48°45' W 122°30'0 0.0
2015-Apr-25 20:32N 48°45' W 122°30'0 0.0
2015-Apr-25 11:17N 48°45' W 122°30'0 0.0
2015-Apr-25 10:26N 48°45' W 122°30'0 0.0
2015-Apr-25 06:08N 48°45' W 122°30'0 0.0
2015-Apr-25 05:11N 48°45' W 122°30'0 0.0
2015-Apr-25 04:29N 48°45' W 122°30'0 0.0
2015-Apr-25 03:33N 48°45' W 122°30'0 0.0
2015-Apr-25 02:33N 48°45' W 122°30'0 0.0
2015-Apr-25 01:33N 48°45' W 122°30'0 0.0
2015-Apr-25 00:33N 48°45' W 122°30'0 0.0
2015-Apr-24 23:33N 48°45' W 122°30'0 0.0
2015-Apr-24 22:33N 48°45' W 122°30'0 0.0
2015-Apr-24 21:33N 48°45' W 122°30'0 0.0
2015-Apr-24 20:33N 48°45' W 122°30'0 0.0
2015-Apr-24 19:33N 48°45' W 122°30'0 0.2
2015-Apr-24 18:33N 48°45' W 122°30'0 0.0
2015-Apr-24 17:33N 48°45' W 122°30'0 0.0
2015-Apr-24 16:33N 48°45' W 122°30'0 0.0
2015-Apr-24 15:33N 48°45' W 122°30'0 0.0
2015-Apr-24 14:33N 48°45' W 122°30'0 0.0
2015-Apr-24 13:33N 48°45' W 122°30'0 0.0
2015-Apr-24 12:33N 48°45' W 122°30'0 0.0
2015-Apr-24 11:33N 48°45' W 122°30'0 0.1
2015-Apr-24 10:33N 48°45' W 122°30'0 0.1
2015-Apr-24 09:33N 48°45' W 122°30'0 0.0
2015-Apr-24 08:33N 48°45' W 122°30'0 0.0
2015-Apr-24 07:33N 48°45' W 122°30'0 0.1
2015-Apr-24 06:33N 48°45' W 122°30'1111.2
2015-Apr-24 05:33N 48°36' W 122°40'1313.1
2015-Apr-24 04:33N 48°23' W 122°44'18 9.0
2015-Apr-24 02:33N 48°05' W 122°39'9 9.3
2015-Apr-24 01:33N 47°57' W 122°32'1111.1
2015-Apr-24 00:33N 47°47' W 122°26'9 9.4
2015-Apr-23 23:33N 47°38' W 122°23'0 0.3
2015-Apr-23 22:33N 47°38' W 122°23'0 0.0
2015-Apr-23 21:33N 47°38' W 122°23'0 0.0
2015-Apr-23 20:33N 47°38' W 122°23'0 0.0
2015-Apr-23 19:30N 47°38' W 122°23'0 0.0
2015-Apr-23 18:30N 47°38' W 122°23'0 0.0
2015-Apr-23 17:33N 47°38' W 122°23'0 0.0
2015-Apr-23 16:33N 47°38' W 122°23'0 0.0
2015-Apr-23 15:33N 47°38' W 122°23'0 0.0
2015-Apr-23 14:33N 47°38' W 122°23'0 0.0
2015-Apr-23 13:33N 47°38' W 122°23'0 0.0
2015-Apr-23 12:33N 47°38' W 122°23'0 0.0
2015-Apr-23 11:30N 47°38' W 122°23'0 0.0
2015-Apr-23 10:33N 47°38' W 122°23'0 0.0
2015-Apr-23 09:33N 47°38' W 122°23'0 0.0
2015-Apr-23 08:33N 47°38' W 122°23'0 0.0
2015-Apr-23 07:33N 47°38' W 122°23'0 0.0
2015-Apr-23 06:33N 47°38' W 122°23'0 0.0
2015-Apr-23 05:33N 47°38' W 122°23'0 0.1
2015-Apr-23 04:33N 47°38' W 122°23'3 2.7
2015-Apr-23 03:33N 47°35' W 122°21'0 0.0
2015-Apr-23 02:33N 47°35' W 122°21'0 0.0
2015-Apr-23 01:33N 47°35' W 122°21'0 0.0
2015-Apr-23 00:33N 47°35' W 122°21'0 0.0
2015-Apr-22 23:34N 47°35' W 122°21'0 0.0
2015-Apr-22 22:33N 47°35' W 122°21'0 0.0
2015-Apr-22 21:33N 47°35' W 122°21'0 0.0
2015-Apr-22 20:33N 47°35' W 122°21'0 0.0
2015-Apr-22 19:33N 47°35' W 122°21'4 3.5
2015-Apr-22 18:33N 47°37' W 122°26'7 7.2
2015-Apr-22 17:33N 47°44' W 122°27'8 8.5
2015-Apr-22 16:33N 47°53' W 122°29'8 7.9
2015-Apr-22 15:33N 47°59' W 122°36'1210.6
2015-Apr-22 14:27N 48°09' W 122°44'1010.6
2015-Apr-22 13:33N 48°19' W 122°47'1111.3
2015-Apr-22 12:33N 48°30' W 122°43'1110.9
2015-Apr-22 11:33N 48°39' W 122°34'7 5.1
2015-Apr-22 10:12N 48°45' W 122°30'0 0.0
2015-Apr-22 09:24N 48°45' W 122°30'0 0.0
2015-Apr-22 08:27N 48°45' W 122°30'0 0.0
2015-Apr-22 07:33N 48°45' W 122°30'0 0.0
2015-Apr-22 06:30N 48°45' W 122°30'0 0.0
2015-Apr-22 05:27N 48°45' W 122°30'0 0.0
2015-Apr-22 04:33N 48°45' W 122°30'0 0.0
2015-Apr-22 03:33N 48°45' W 122°30'0 0.0
2015-Apr-22 02:30N 48°45' W 122°30'0 0.0
2015-Apr-22 01:30N 48°45' W 122°30'0 0.0
2015-Apr-22 00:30N 48°45' W 122°30'0 0.0
2015-Apr-21 23:33N 48°45' W 122°30'0 0.0
2015-Apr-21 22:33N 48°45' W 122°30'0 0.0
2015-Apr-21 21:30N 48°45' W 122°30'0 0.0
2015-Apr-21 20:33N 48°45' W 122°30'0 0.0
2015-Apr-21 19:30N 48°45' W 122°30'0 0.0
2015-Apr-21 18:30N 48°45' W 122°30'0 0.0
2015-Apr-21 17:24N 48°45' W 122°30'0 0.0
2015-Apr-21 16:33N 48°45' W 122°30'0 0.0
2015-Apr-21 15:33N 48°45' W 122°30'0 0.0
2015-Apr-21 14:33N 48°45' W 122°30'0 0.0
2015-Apr-21 13:30N 48°45' W 122°30'0 0.0
2015-Apr-21 12:27N 48°45' W 122°30'0 0.0
2015-Apr-21 11:33N 48°45' W 122°30'0 0.0
2015-Apr-21 10:30N 48°45' W 122°30'0 0.0
2015-Apr-21 09:30N 48°45' W 122°30'0 0.0
2015-Apr-21 08:30N 48°45' W 122°30'0 0.0
2015-Apr-21 07:30N 48°45' W 122°30'0 0.0
2015-Apr-21 06:30N 48°45' W 122°30'0 0.0
2015-Apr-21 05:30N 48°45' W 122°30'0 0.0
2015-Apr-21 04:27N 48°45' W 122°30'0 0.0
2015-Apr-21 03:33N 48°45' W 122°30'0 0.0
2015-Apr-21 02:33N 48°45' W 122°30'0 0.0
2015-Apr-21 01:30N 48°45' W 122°30'0 0.0
2015-Apr-21 00:30N 48°45' W 122°30'0 0.0
2015-Apr-20 23:24N 48°45' W 122°30'0 0.0
2015-Apr-20 22:30N 48°45' W 122°30'0 0.0
2015-Apr-20 21:33N 48°45' W 122°30'0 0.0
2015-Apr-20 20:30N 48°45' W 122°30'0 0.0
2015-Apr-20 19:30N 48°45' W 122°30'0 0.0
2015-Apr-20 18:33N 48°45' W 122°30'0 0.0
2015-Apr-20 17:30N 48°45' W 122°30'0 0.0
2015-Apr-20 16:33N 48°45' W 122°30'0 0.0
2015-Apr-20 15:30N 48°45' W 122°30'0 0.0
2015-Apr-20 14:33N 48°45' W 122°30'0 0.0
2015-Apr-20 13:33N 48°45' W 122°30'0 0.0
2015-Apr-20 12:33N 48°45' W 122°30'0 0.0
2015-Apr-20 11:33N 48°45' W 122°30'0 0.0
2015-Apr-20 10:30N 48°45' W 122°30'0 0.0
2015-Apr-20 09:30N 48°45' W 122°30'0 0.0
2015-Apr-20 08:30N 48°45' W 122°30'0 0.0
2015-Apr-20 07:33N 48°45' W 122°30'0 0.0
2015-Apr-20 06:33N 48°45' W 122°30'0 0.0
2015-Apr-20 05:30N 48°45' W 122°30'0 0.0
2015-Apr-20 04:24N 48°45' W 122°30'0 0.0
2015-Apr-20 03:33N 48°45' W 122°30'0 0.0
2015-Apr-20 02:24N 48°45' W 122°30'0 0.0
2015-Apr-20 01:33N 48°45' W 122°30'0 0.0
2015-Apr-20 00:30N 48°45' W 122°30'0 0.0
2015-Apr-19 23:33N 48°45' W 122°30'0 0.0
2015-Apr-19 22:30N 48°45' W 122°30'0 0.0
2015-Apr-19 21:30N 48°45' W 122°30'0 0.0
2015-Apr-19 20:33N 48°45' W 122°30'0 0.0
2015-Apr-19 19:30N 48°45' W 122°30'0 0.0
2015-Apr-19 18:33N 48°45' W 122°30'0 0.0
2015-Apr-19 17:27N 48°45' W 122°30'0 0.0
2015-Apr-19 16:27N 48°45' W 122°30'0 0.0
2015-Apr-19 15:30N 48°45' W 122°30'0 0.0
2015-Apr-19 14:33N 48°45' W 122°30'0 0.0
2015-Apr-19 13:30N 48°45' W 122°30'0 0.0
2015-Apr-19 12:33N 48°45' W 122°30'0 0.0
2015-Apr-19 11:33N 48°45' W 122°30'0 0.0
2015-Apr-19 10:33N 48°45' W 122°30'0 0.0
2015-Apr-19 09:30N 48°45' W 122°30'0 0.0
2015-Apr-19 08:33N 48°45' W 122°30'0 0.0
2015-Apr-19 07:30N 48°45' W 122°30'0 0.0
2015-Apr-19 06:33N 48°45' W 122°30'0 0.0
2015-Apr-19 05:18N 48°45' W 122°30'0 0.0
2015-Apr-19 04:33N 48°45' W 122°30'0 0.0
2015-Apr-19 03:30N 48°45' W 122°30'0 0.0
2015-Apr-19 02:30N 48°45' W 122°30'0 0.0
2015-Apr-19 01:33N 48°45' W 122°30'0 0.0
2015-Apr-19 00:33N 48°45' W 122°30'0 0.0
2015-Apr-18 23:30N 48°45' W 122°30'0 0.0
2015-Apr-18 22:33N 48°45' W 122°30'0 0.0
2015-Apr-18 21:30N 48°45' W 122°30'0 0.0
2015-Apr-18 20:21N 48°45' W 122°30'0 0.0
2015-Apr-18 19:33N 48°45' W 122°30'0 0.0
2015-Apr-18 18:33N 48°45' W 122°30'0 0.0
2015-Apr-18 17:33N 48°45' W 122°30'0 0.0
2015-Apr-18 16:33N 48°45' W 122°30'0 0.0
2015-Apr-18 15:33N 48°45' W 122°30'0 0.0
2015-Apr-18 14:30N 48°45' W 122°30'0 0.0
2015-Apr-18 13:33N 48°45' W 122°30'0 0.0
2015-Apr-18 12:24N 48°45' W 122°30'0 0.0
2015-Apr-18 11:33N 48°45' W 122°30'0 0.0
2015-Apr-18 10:33N 48°45' W 122°30'0 0.0
2015-Apr-18 09:33N 48°45' W 122°30'0 0.0
2015-Apr-18 08:33N 48°45' W 122°30'0 0.0
2015-Apr-18 07:33N 48°45' W 122°30'  
Track history (hours):
 
Tides and Currents Weather Stations Pressure Air Temp Water Temp Dewpoint Dewpoint Depression Visibility Wind Speed Wind Dir Waves Ship Positions

Corbin Foss

Owner: Foss International, Inc, Seattle, WA. More information available from US FCC via Universal Licensing System and Coast Guard Vessel Documentation Center.

Last reported at 2015-Apr-28 07:04 UTC. Time now 2015-Apr-28 18:15 UTC.
Position N 48°45' W 122°30'.

Type: Tow > 200 m length. MMSI: 366902220.

Date/timePositionNaut miles runAvg speedWind from/ knotsBaromVisibWave heightAir tempDewpointWater temp
2015-Apr-28 07:04N 48°45' W 122°30'0 0.0
2015-Apr-28 03:25N 48°45' W 122°30'1 1.3
2015-Apr-28 02:33N 48°44' W 122°31'5 5.0
2015-Apr-28 01:33N 48°39' W 122°34'5 5.4
2015-Apr-28 00:33N 48°40' W 122°42'6 6.3
2015-Apr-27 23:33N 48°45' W 122°48'7 7.2
2015-Apr-27 22:33N 48°49' W 122°57'6 6.1
2015-Apr-27 21:33N 48°53' W 123°05'8 7.5
2015-Apr-27 20:33N 48°57' W 123°14'7 7.1
2015-Apr-27 19:33N 49°02' W 123°22'7 6.7
2015-Apr-27 18:33N 49°09' W 123°23'8 7.6
2015-Apr-27 17:33N 49°16' W 123°20'7 6.9
2015-Apr-27 16:34N 49°19' W 123°11'4 3.8
2015-Apr-27 15:32N 49°18' W 123°05'0 0.2
2015-Apr-27 14:33N 49°18' W 123°05'0 0.0
2015-Apr-27 13:33N 49°18' W 123°05'0 0.0
2015-Apr-27 12:33N 49°18' W 123°05'0 0.0
2015-Apr-27 11:33N 49°18' W 123°05'0 0.0
2015-Apr-27 10:33N 49°18' W 123°05'0 0.0
2015-Apr-27 09:33N 49°18' W 123°05'0 0.0
2015-Apr-27 08:33N 49°18' W 123°05'0 0.0
2015-Apr-27 07:33N 49°18' W 123°05'0 0.0
2015-Apr-27 06:33N 49°18' W 123°05'0 0.0
2015-Apr-27 05:33N 49°18' W 123°05'0 0.0
2015-Apr-27 04:33N 49°18' W 123°05'0 0.0
2015-Apr-27 03:33N 49°18' W 123°05'0 0.0
2015-Apr-27 02:33N 49°18' W 123°05'0 0.0
2015-Apr-27 01:33N 49°18' W 123°05'0 0.0
2015-Apr-27 00:33N 49°18' W 123°05'0 0.0
2015-Apr-26 23:33N 49°18' W 123°05'0 0.0
2015-Apr-26 22:33N 49°18' W 123°05'0 0.0
2015-Apr-26 21:33N 49°18' W 123°05'1 1.4
2015-Apr-26 20:34N 49°18' W 123°07'9 8.8
2015-Apr-26 19:33N 49°14' W 123°19'1010.3
2015-Apr-26 18:34N 49°04' W 123°20'1110.7
2015-Apr-26 17:34N 48°57' W 123°09'1110.9
2015-Apr-26 16:33N 48°50' W 122°56'1110.7
2015-Apr-26 15:33N 48°43' W 122°44'7 7.2
2015-Apr-26 14:33N 48°40' W 122°34'5 1.8
2015-Apr-26 11:32N 48°45' W 122°30'0 0.0
2015-Apr-26 10:17N 48°45' W 122°30'0 0.0
2015-Apr-26 09:20N 48°45' W 122°30'0 0.0
2015-Apr-26 07:29N 48°45' W 122°30'0 0.0
2015-Apr-26 06:11N 48°45' W 122°30'0 0.0
2015-Apr-26 05:32N 48°45' W 122°30'0 0.0
2015-Apr-26 04:29N 48°45' W 122°30'0 0.0
2015-Apr-26 03:17N 48°45' W 122°30'0 0.0
2015-Apr-26 02:32N 48°45' W 122°30'0 0.0
2015-Apr-26 01:26N 48°45' W 122°30'0 0.0
2015-Apr-26 00:32N 48°45' W 122°30'0 0.0
2015-Apr-25 23:32N 48°45' W 122°30'0 0.0
2015-Apr-25 22:29N 48°45' W 122°30'0 0.0
2015-Apr-25 21:26N 48°45' W 122°30'0 0.0
2015-Apr-25 20:32N 48°45' W 122°30'0 0.0
2015-Apr-25 11:17N 48°45' W 122°30'0 0.0
2015-Apr-25 10:26N 48°45' W 122°30'0 0.0
2015-Apr-25 06:08N 48°45' W 122°30'0 0.0
2015-Apr-25 05:11N 48°45' W 122°30'0 0.0
2015-Apr-25 04:29N 48°45' W 122°30'0 0.0
2015-Apr-25 03:33N 48°45' W 122°30'0 0.0
2015-Apr-25 02:33N 48°45' W 122°30'0 0.0
2015-Apr-25 01:33N 48°45' W 122°30'0 0.0
2015-Apr-25 00:33N 48°45' W 122°30'0 0.0
2015-Apr-24 23:33N 48°45' W 122°30'0 0.0
2015-Apr-24 22:33N 48°45' W 122°30'0 0.0
2015-Apr-24 21:33N 48°45' W 122°30'0 0.0
2015-Apr-24 20:33N 48°45' W 122°30'0 0.0
2015-Apr-24 19:33N 48°45' W 122°30'0 0.2
2015-Apr-24 18:33N 48°45' W 122°30'0 0.0
2015-Apr-24 17:33N 48°45' W 122°30'0 0.0
2015-Apr-24 16:33N 48°45' W 122°30'0 0.0
2015-Apr-24 15:33N 48°45' W 122°30'0 0.0
2015-Apr-24 14:33N 48°45' W 122°30'0 0.0
2015-Apr-24 13:33N 48°45' W 122°30'0 0.0
2015-Apr-24 12:33N 48°45' W 122°30'0 0.0
2015-Apr-24 11:33N 48°45' W 122°30'0 0.1
2015-Apr-24 10:33N 48°45' W 122°30'0 0.1
2015-Apr-24 09:33N 48°45' W 122°30'0 0.0
2015-Apr-24 08:33N 48°45' W 122°30'0 0.0
2015-Apr-24 07:33N 48°45' W 122°30'0 0.1
2015-Apr-24 06:33N 48°45' W 122°30'1111.2
2015-Apr-24 05:33N 48°36' W 122°40'1313.1
2015-Apr-24 04:33N 48°23' W 122°44'18 9.0
2015-Apr-24 02:33N 48°05' W 122°39'9 9.3
2015-Apr-24 01:33N 47°57' W 122°32'1111.1
2015-Apr-24 00:33N 47°47' W 122°26'9 9.4
2015-Apr-23 23:33N 47°38' W 122°23'0 0.3
2015-Apr-23 22:33N 47°38' W 122°23'0 0.0
2015-Apr-23 21:33N 47°38' W 122°23'0 0.0
2015-Apr-23 20:33N 47°38' W 122°23'0 0.0
2015-Apr-23 19:30N 47°38' W 122°23'0 0.0
2015-Apr-23 18:30N 47°38' W 122°23'0 0.0
2015-Apr-23 17:33N 47°38' W 122°23'0 0.0
2015-Apr-23 16:33N 47°38' W 122°23'0 0.0
2015-Apr-23 15:33N 47°38' W 122°23'0 0.0
2015-Apr-23 14:33N 47°38' W 122°23'0 0.0
2015-Apr-23 13:33N 47°38' W 122°23'0 0.0
2015-Apr-23 12:33N 47°38' W 122°23'0 0.0
2015-Apr-23 11:30N 47°38' W 122°23'0 0.0
2015-Apr-23 10:33N 47°38' W 122°23'0 0.0
2015-Apr-23 09:33N 47°38' W 122°23'0 0.0
2015-Apr-23 08:33N 47°38' W 122°23'0 0.0
2015-Apr-23 07:33N 47°38' W 122°23'0 0.0
2015-Apr-23 06:33N 47°38' W 122°23'0 0.0
2015-Apr-23 05:33N 47°38' W 122°23'0 0.1
2015-Apr-23 04:33N 47°38' W 122°23'3 2.7
2015-Apr-23 03:33N 47°35' W 122°21'0 0.0
2015-Apr-23 02:33N 47°35' W 122°21'0 0.0
2015-Apr-23 01:33N 47°35' W 122°21'0 0.0
2015-Apr-23 00:33N 47°35' W 122°21'0 0.0
2015-Apr-22 23:34N 47°35' W 122°21'0 0.0
2015-Apr-22 22:33N 47°35' W 122°21'0 0.0
2015-Apr-22 21:33N 47°35' W 122°21'0 0.0
2015-Apr-22 20:33N 47°35' W 122°21'0 0.0
2015-Apr-22 19:33N 47°35' W 122°21'4 3.5
2015-Apr-22 18:33N 47°37' W 122°26'7 7.2
2015-Apr-22 17:33N 47°44' W 122°27'8 8.5
2015-Apr-22 16:33N 47°53' W 122°29'8 7.9
2015-Apr-22 15:33N 47°59' W 122°36'1210.6
2015-Apr-22 14:27N 48°09' W 122°44'1010.6
2015-Apr-22 13:33N 48°19' W 122°47'1111.3
2015-Apr-22 12:33N 48°30' W 122°43'1110.9
2015-Apr-22 11:33N 48°39' W 122°34'7 5.1
2015-Apr-22 10:12N 48°45' W 122°30'0 0.0
2015-Apr-22 09:24N 48°45' W 122°30'0 0.0
2015-Apr-22 08:27N 48°45' W 122°30'0 0.0
2015-Apr-22 07:33N 48°45' W 122°30'0 0.0
2015-Apr-22 06:30N 48°45' W 122°30'0 0.0
2015-Apr-22 05:27N 48°45' W 122°30'0 0.0
2015-Apr-22 04:33N 48°45' W 122°30'0 0.0
2015-Apr-22 03:33N 48°45' W 122°30'0 0.0
2015-Apr-22 02:30N 48°45' W 122°30'0 0.0
2015-Apr-22 01:30N 48°45' W 122°30'0 0.0
2015-Apr-22 00:30N 48°45' W 122°30'0 0.0
2015-Apr-21 23:33N 48°45' W 122°30'0 0.0
2015-Apr-21 22:33N 48°45' W 122°30'0 0.0
2015-Apr-21 21:30N 48°45' W 122°30'0 0.0
2015-Apr-21 20:33N 48°45' W 122°30'0 0.0
2015-Apr-21 19:30N 48°45' W 122°30'0 0.0
2015-Apr-21 18:30N 48°45' W 122°30'0 0.0
2015-Apr-21 17:24N 48°45' W 122°30'0 0.0
2015-Apr-21 16:33N 48°45' W 122°30'0 0.0
2015-Apr-21 15:33N 48°45' W 122°30'0 0.0
2015-Apr-21 14:33N 48°45' W 122°30'0 0.0
2015-Apr-21 13:30N 48°45' W 122°30'0 0.0
2015-Apr-21 12:27N 48°45' W 122°30'0 0.0
2015-Apr-21 11:33N 48°45' W 122°30'0 0.0
2015-Apr-21 10:30N 48°45' W 122°30'0 0.0
2015-Apr-21 09:30N 48°45' W 122°30'0 0.0
2015-Apr-21 08:30N 48°45' W 122°30'0 0.0
2015-Apr-21 07:30N 48°45' W 122°30'0 0.0
2015-Apr-21 06:30N 48°45' W 122°30'0 0.0
2015-Apr-21 05:30N 48°45' W 122°30'0 0.0
2015-Apr-21 04:27N 48°45' W 122°30'0 0.0
2015-Apr-21 03:33N 48°45' W 122°30'0 0.0
2015-Apr-21 02:33N 48°45' W 122°30'0 0.0
2015-Apr-21 01:30N 48°45' W 122°30'0 0.0
2015-Apr-21 00:30N 48°45' W 122°30'0 0.0
2015-Apr-20 23:24N 48°45' W 122°30'0 0.0
2015-Apr-20 22:30N 48°45' W 122°30'0 0.0
2015-Apr-20 21:33N 48°45' W 122°30'0 0.0
2015-Apr-20 20:30N 48°45' W 122°30'0 0.0
2015-Apr-20 19:30N 48°45' W 122°30'0 0.0
2015-Apr-20 18:33N 48°45' W 122°30'0 0.0
2015-Apr-20 17:30N 48°45' W 122°30'0 0.0
2015-Apr-20 16:33N 48°45' W 122°30'0 0.0
2015-Apr-20 15:30N 48°45' W 122°30'0 0.0
2015-Apr-20 14:33N 48°45' W 122°30'0 0.0
2015-Apr-20 13:33N 48°45' W 122°30'0 0.0
2015-Apr-20 12:33N 48°45' W 122°30'0 0.0
2015-Apr-20 11:33N 48°45' W 122°30'0 0.0
2015-Apr-20 10:30N 48°45' W 122°30'0 0.0
2015-Apr-20 09:30N 48°45' W 122°30'0 0.0
2015-Apr-20 08:30N 48°45' W 122°30'0 0.0
2015-Apr-20 07:33N 48°45' W 122°30'0 0.0
2015-Apr-20 06:33N 48°45' W 122°30'0 0.0
2015-Apr-20 05:30N 48°45' W 122°30'0 0.0
2015-Apr-20 04:24N 48°45' W 122°30'0 0.0
2015-Apr-20 03:33N 48°45' W 122°30'0 0.0
2015-Apr-20 02:24N 48°45' W 122°30'0 0.0
2015-Apr-20 01:33N 48°45' W 122°30'0 0.0
2015-Apr-20 00:30N 48°45' W 122°30'0 0.0
2015-Apr-19 23:33N 48°45' W 122°30'0 0.0
2015-Apr-19 22:30N 48°45' W 122°30'0 0.0
2015-Apr-19 21:30N 48°45' W 122°30'0 0.0
2015-Apr-19 20:33N 48°45' W 122°30'0 0.0
2015-Apr-19 19:30N 48°45' W 122°30'0 0.0
2015-Apr-19 18:33N 48°45' W 122°30'0 0.0
2015-Apr-19 17:27N 48°45' W 122°30'0 0.0
2015-Apr-19 16:27N 48°45' W 122°30'0 0.0
2015-Apr-19 15:30N 48°45' W 122°30'0 0.0
2015-Apr-19 14:33N 48°45' W 122°30'0 0.0
2015-Apr-19 13:30N 48°45' W 122°30'0 0.0
2015-Apr-19 12:33N 48°45' W 122°30'0 0.0
2015-Apr-19 11:33N 48°45' W 122°30'0 0.0
2015-Apr-19 10:33N 48°45' W 122°30'0 0.0
2015-Apr-19 09:30N 48°45' W 122°30'0 0.0
2015-Apr-19 08:33N 48°45' W 122°30'0 0.0
2015-Apr-19 07:30N 48°45' W 122°30'0 0.0
2015-Apr-19 06:33N 48°45' W 122°30'0 0.0
2015-Apr-19 05:18N 48°45' W 122°30'0 0.0
2015-Apr-19 04:33N 48°45' W 122°30'0 0.0
2015-Apr-19 03:30N 48°45' W 122°30'0 0.0
2015-Apr-19 02:30N 48°45' W 122°30'0 0.0
2015-Apr-19 01:33N 48°45' W 122°30'0 0.0
2015-Apr-19 00:33N 48°45' W 122°30'0 0.0
2015-Apr-18 23:30N 48°45' W 122°30'0 0.0
2015-Apr-18 22:33N 48°45' W 122°30'0 0.0
2015-Apr-18 21:30N 48°45' W 122°30'0 0.0
2015-Apr-18 20:21N 48°45' W 122°30'0 0.0
2015-Apr-18 19:33N 48°45' W 122°30'0 0.0
2015-Apr-18 18:33N 48°45' W 122°30'0 0.0
2015-Apr-18 17:33N 48°45' W 122°30'0 0.0
2015-Apr-18 16:33N 48°45' W 122°30'0 0.0
2015-Apr-18 15:33N 48°45' W 122°30'0 0.0
2015-Apr-18 14:30N 48°45' W 122°30'0 0.0
2015-Apr-18 13:33N 48°45' W 122°30'0 0.0
2015-Apr-18 12:24N 48°45' W 122°30'0 0.0
2015-Apr-18 11:33N 48°45' W 122°30'0 0.0
2015-Apr-18 10:33N 48°45' W 122°30'0 0.0
2015-Apr-18 09:33N 48°45' W 122°30'0 0.0
2015-Apr-18 08:33N 48°45' W 122°30'0 0.0
2015-Apr-18 07:33N 48°45' W 122°30'  

Dump ship's entire track history